LEAB

Albacete-Los Llanos Airport

Albacete, Spain
TAF LEAB 241700Z 2418/2503 16010KT CAVOK
Issued Valid From Valid To
Sep-24 @ 17:00 UTC
(2 hours ago)
Sep-24 @ 18:00 UTC
(an hour ago)
Sep-25 @ 03:00 UTC
(in 8 hours)
Sep-24 @ 18:00 to Sep-25 @ 03:00
TAF LEAB 241700Z 2418/2503 16010KT CAVOK
Wind Visibility Clouds Conditions
160° at 10 knots 10,000+ meters
  • No significant clouds
TAF LEAB 241700Z 2418/2503 16010KT CAVOK
Issued Sep-24 @ 17:00 UTC
(2 hours ago)
Valid From Sep-24 @ 18:00 UTC
(an hour ago)
Valid To Sep-25 @ 03:00 UTC
(in 8 hours)
Sep-24 @ 18:00 - Sep-25 @ 03:00
Wind Visibility
160° at 10 knots 10,000+ meters
Clouds
  • No significant clouds
Conditions